Philadelphia, PA (19134)

9:39 AM EDT on September 20, 2014 (GMT -0400)
Port Richmond (JcWeather) | Change Station
CLOSE
Current Station
Personal Weather Station
Location: Philadelphia, PA
Elevation: 20 ft
Nearby Weather Stations

Elev 20 ft 39.98 °N, 75.11 °W | Updated 4 minutes ago

Clear
Clear
70.0 °F
Feels Like 70.0 °F
N
3.8
Wind Variable Wind from SSE
Gusts 5.0 mph

Today
High -- | Low -- °F
--% Chance of Precip.
Yesterday
High -- | Low -- °F
Precip. -- in
6:46 AM 7:00 PM
Waning Crescent, 12% visible
Pressure 30.30 in
Visibility 9.0 miles
Clouds Clear
Dew Point 63 °F
Humidity 79%
Rainfall 0.00 in
Snow Depth Not available.
UV 2 out of 12
Pollen 2.80 out of 12
Ozone Good
PM2.5 Moderate
Flu Activity Not available.
METAR KPNE 201254Z AUTO 08004KT 9SM CLR 18/12 A3030 RMK AO2 SLP260 T01780122 TSNO

More Conditions Fewer Conditions

Pressure 30.30 in
Visibility 9.0 miles
Clouds Clear
Dew Point 63 °F
Humidity 79%
Rainfall 0.00 in
Snow Depth Not available.
UV 2 out of 12
Pollen 2.80 out of 12
Ozone Good
PM2.5 Moderate
Flu Activity Not available.
METAR KPNE 201254Z AUTO 08004KT 9SM CLR 18/12 A3030 RMK AO2 SLP260 T01780122 TSNO

More Conditions Fewer Conditions

10-Day Weather Forecast

Almanac

Astronomy

Sep. 20, 2014 Rise Set
Actual Time 6:46 AM EDT 7:00 PM EDT
Civil Twilight 6:19 AM EDT 7:27 PM EDT
Nautical Twilight 5:47 AM EDT 7:59 PM EDT
Astronomical Twilight 5:14 AM EDT 8:31 PM EDT
Moon 3:23 AM EDT 5:02 PM EDT
Length of Visible Light 13h 08m
Length of Day
12h 14m
Tomorrow will be 2m 37s shorter.
Waning Crescent, 12% of the Moon is Illuminated
Today
Waning Crescent
Sep 24
New
Oct 1
First Quarter
Oct 8
Full
Oct 15
Last Quarter

Today's Extremes

State Highs State Lows

Community

WunderPhotos

Upload Photos

1,754,858 photos uploaded!

Nearby

Air Quality

  Air Quality AQ Index Pollutant
Yesterday Moderate
PM2.5
Yesterday Good
OZONE
Current Moderate
PM2.5
Current Good
OZONE
Saturday Good
PM2.5
Saturday Good
OZONE
Sunday Moderate
PM2.5
Sunday Good
OZONE
Monday Good
OZONE
Monday Good
PM2.5
Tuesday Good
OZONE
Tuesday Good
PM2.5

Snow Depth

Station Depth Elevation
No new snow has been reported.

Earthquake Activity

City Distance Mag. Time & Date
No recent earthquake activity has been reported nearby.
Minimum magnitude displayed is 2.5.

Coastal Water Temperatures

Place Temperature
Ship John Shoal, NJ 72.0 °F
Cape May, NJ 73.9 °F
Reedy Point, DE 73.0 °F
Delaware City, DE 72.0 °F
Marcus Hook, PA 73.0 °F

Nearby Weather Stations